createdAt,value
2023-11-26T00:00:12.032Z,929.77
2023-11-26T00:01:12.932Z,929.8
2023-11-26T00:02:14.077Z,929.76
2023-11-26T00:03:14.640Z,929.77
2023-11-26T00:04:15.444Z,929.78
2023-11-26T00:05:15.728Z,929.76
2023-11-26T00:06:16.279Z,929.79
2023-11-26T00:07:16.790Z,929.84
2023-11-26T00:08:17.669Z,929.8
2023-11-26T00:09:17.925Z,929.83
2023-11-26T00:10:18.616Z,929.78
2023-11-26T00:11:19.136Z,929.83
2023-11-26T00:12:19.920Z,929.82
2023-11-26T00:13:20.122Z,929.86
2023-11-26T00:14:20.755Z,929.79
2023-11-26T00:15:20.908Z,929.85
2023-11-26T00:16:21.427Z,929.88
2023-11-26T00:17:22.046Z,929.9
2023-11-26T00:18:22.511Z,929.85
2023-11-26T00:19:23.149Z,929.95
2023-11-26T00:20:24.080Z,929.96
2023-11-26T00:21:24.172Z,929.98
2023-11-26T00:22:24.724Z,929.98
2023-11-26T00:23:24.867Z,929.98
2023-11-26T00:24:25.173Z,929.99
2023-11-26T00:25:25.878Z,929.99
2023-11-26T00:26:26.499Z,930.03
2023-11-26T00:27:27.230Z,930.03
2023-11-26T00:28:27.499Z,930.12
2023-11-26T00:29:27.804Z,930.01
2023-11-26T00:30:28.524Z,930.04
2023-11-26T00:31:29.077Z,930.04
2023-11-26T00:32:31.045Z,930.07
2023-11-26T00:33:29.954Z,930
2023-11-26T00:34:30.869Z,930.06
2023-11-26T00:35:31.022Z,930.06
2023-11-26T00:36:31.964Z,930.05
2023-11-26T00:37:32.325Z,929.98
2023-11-26T00:38:32.643Z,930.08
2023-11-26T00:39:33.126Z,930.04
2023-11-26T00:40:33.831Z,930.08
2023-11-26T00:41:34.811Z,929.97
2023-11-26T00:42:35.594Z,930.07
2023-11-26T00:43:35.907Z,930.09
2023-11-26T00:44:36.406Z,930.1
2023-11-26T00:45:37.166Z,930.05
2023-11-26T00:46:37.921Z,930.1
2023-11-26T00:47:38.147Z,930.07
2023-11-26T00:48:38.646Z,930.05
2023-11-26T00:49:39.162Z,930.13
2023-11-26T00:50:39.569Z,930.1
2023-11-26T00:51:40.502Z,930.11
2023-11-26T00:52:41.030Z,930.04
2023-11-26T00:53:41.750Z,930.1
2023-11-26T00:54:42.553Z,930.08
2023-11-26T00:55:43.452Z,930.09
2023-11-26T00:56:44.148Z,930.08
2023-11-26T00:57:44.881Z,930.11
2023-11-26T00:58:45.105Z,930.12
2023-11-26T00:59:45.296Z,930.19
2023-11-26T01:00:45.413Z,930.21
2023-11-26T01:01:46.306Z,930.19
2023-11-26T01:02:47.126Z,930.16
2023-11-26T01:03:47.864Z,930.17
2023-11-26T01:04:48.691Z,930.22
2023-11-26T01:05:49.654Z,930.25
2023-11-26T01:06:50.273Z,930.33
2023-11-26T01:07:51.225Z,930.31
2023-11-26T01:08:52.059Z,930.29
2023-11-26T01:09:52.552Z,930.3
2023-11-26T01:10:53.259Z,930.33
2023-11-26T01:11:54.127Z,930.38
2023-11-26T01:12:54.684Z,930.39
2023-11-26T01:13:54.922Z,930.41
2023-11-26T01:14:55.149Z,930.49
2023-11-26T01:15:55.442Z,930.49
2023-11-26T01:16:56.005Z,930.55
2023-11-26T01:17:57.112Z,930.7
2023-11-26T01:18:57.402Z,930.76
2023-11-26T01:19:58.429Z,930.88
2023-11-26T01:20:59.358Z,930.89
2023-11-26T01:21:59.892Z,930.97
2023-11-26T01:23:00.379Z,931
2023-11-26T01:24:01.209Z,931
2023-11-26T01:25:01.413Z,930.93
2023-11-26T01:26:02.350Z,930.88
2023-11-26T01:27:03.030Z,930.96
2023-11-26T01:28:03.954Z,930.95
2023-11-26T01:29:04.219Z,930.99
2023-11-26T01:30:05.046Z,930.99
2023-11-26T01:31:05.608Z,931
2023-11-26T01:32:06.321Z,931.03
2023-11-26T01:33:07.492Z,931.06
2023-11-26T01:34:07.608Z,931.01
2023-11-26T01:35:07.709Z,931.03
2023-11-26T01:36:08.734Z,931.04
2023-11-26T01:37:09.612Z,931.1
2023-11-26T01:38:10.363Z,931.1
2023-11-26T01:39:10.886Z,931.12
2023-11-26T01:40:11.394Z,931.14
2023-11-26T01:41:12.308Z,931.16
2023-11-26T01:42:13.270Z,931.22
2023-11-26T01:43:14.236Z,931.21
2023-11-26T01:44:14.539Z,931.26
2023-11-26T01:45:15.268Z,931.3
2023-11-26T01:46:15.848Z,931.3
2023-11-26T01:47:16.578Z,931.3
2023-11-26T01:48:17.412Z,931.28
2023-11-26T01:49:18.098Z,931.3
2023-11-26T01:50:18.509Z,931.28
2023-11-26T01:51:19.422Z,931.27
2023-11-26T01:52:19.698Z,931.3
2023-11-26T01:53:20.613Z,931.28
2023-11-26T01:54:21.614Z,931.32
2023-11-26T01:55:22.267Z,931.31
2023-11-26T01:56:22.592Z,931.33
2023-11-26T01:57:23.398Z,931.38
2023-11-26T01:58:23.939Z,931.35
2023-11-26T01:59:24.211Z,931.38
2023-11-26T02:00:24.510Z,931.37
2023-11-26T02:01:25.048Z,931.4
2023-11-26T02:02:25.678Z,931.45
2023-11-26T02:03:26.757Z,931.49
2023-11-26T02:04:27.149Z,931.48
2023-11-26T02:05:27.840Z,931.55
2023-11-26T02:06:28.383Z,931.58
2023-11-26T02:07:29.081Z,931.6
2023-11-26T02:08:29.574Z,931.62
2023-11-26T02:09:30.308Z,931.59
2023-11-26T02:10:31.216Z,931.63
2023-11-26T02:11:31.898Z,931.64
2023-11-26T02:12:32.383Z,931.6
2023-11-26T02:13:32.842Z,931.65
2023-11-26T02:14:33.145Z,931.68
2023-11-26T02:15:33.482Z,931.65
2023-11-26T02:16:34.224Z,931.62
2023-11-26T02:17:34.912Z,931.7
2023-11-26T02:18:35.617Z,931.71
2023-11-26T02:19:36.112Z,931.62
2023-11-26T02:20:36.475Z,931.72
2023-11-26T02:21:36.784Z,931.68
2023-11-26T02:22:37.859Z,931.75
2023-11-26T02:23:38.219Z,931.76
2023-11-26T02:24:38.898Z,931.79
2023-11-26T02:25:39.134Z,931.76
2023-11-26T02:26:39.864Z,931.81
2023-11-26T02:27:40.372Z,931.81
2023-11-26T02:28:40.520Z,931.85
2023-11-26T02:29:40.849Z,931.87
2023-11-26T02:30:41.343Z,931.89
2023-11-26T02:31:41.854Z,931.89
2023-11-26T02:32:42.734Z,931.92
2023-11-26T02:33:52.908Z,931.87
2023-11-26T02:34:44.302Z,931.87
2023-11-26T02:35:45.250Z,931.91
2023-11-26T02:36:45.749Z,931.93
2023-11-26T02:37:46.626Z,931.91
2023-11-26T02:38:47.103Z,931.96
2023-11-26T02:39:47.580Z,931.96
2023-11-26T02:40:48.493Z,931.97
2023-11-26T02:41:49.142Z,932.04
2023-11-26T02:42:50.097Z,932.05
2023-11-26T02:43:51.018Z,932.06
2023-11-26T02:44:51.480Z,932.1
2023-11-26T02:45:51.724Z,932.13
2023-11-26T02:46:52.591Z,932.15
2023-11-26T02:47:52.726Z,932.27
2023-11-26T02:48:53.408Z,932.3
2023-11-26T02:49:54.129Z,932.36
2023-11-26T02:50:54.215Z,932.38
2023-11-26T02:51:54.898Z,932.43
2023-11-26T02:52:55.627Z,932.39
2023-11-26T02:53:56.089Z,932.44
2023-11-26T02:54:56.813Z,932.5
2023-11-26T02:55:57.508Z,932.53
2023-11-26T02:56:58.196Z,932.59
2023-11-26T02:57:58.862Z,932.6
2023-11-26T02:58:59.587Z,932.68
2023-11-26T02:59:59.957Z,932.67
2023-11-26T03:01:00.506Z,932.66
2023-11-26T03:02:01.342Z,932.66
2023-11-26T03:03:01.370Z,932.67
2023-11-26T03:04:02.135Z,932.68
2023-11-26T03:05:02.832Z,932.7
2023-11-26T03:06:03.268Z,932.75
2023-11-26T03:07:03.776Z,932.71
2023-11-26T03:08:04.278Z,932.75
2023-11-26T03:09:04.888Z,932.84
2023-11-26T03:10:05.646Z,932.84
2023-11-26T03:11:05.767Z,932.93
2023-11-26T03:12:06.653Z,932.97
2023-11-26T03:13:07.173Z,932.86
2023-11-26T03:14:08.096Z,932.94
2023-11-26T03:15:08.596Z,932.94
2023-11-26T03:16:09.543Z,932.99
2023-11-26T03:17:10.507Z,933.05
2023-11-26T03:18:10.623Z,933.05
2023-11-26T03:19:11.204Z,933.11
2023-11-26T03:20:11.622Z,933.14
2023-11-26T03:21:11.704Z,933.12
2023-11-26T03:22:12.345Z,933.18
2023-11-26T03:23:13.230Z,933.21
2023-11-26T03:24:13.535Z,933.2
2023-11-26T03:25:13.703Z,933.21
2023-11-26T03:26:14.444Z,933.24
2023-11-26T03:27:15.415Z,933.21
2023-11-26T03:28:15.900Z,933.27
2023-11-26T03:29:16.243Z,933.23
2023-11-26T03:30:16.607Z,933.28
2023-11-26T03:31:17.343Z,933.22
2023-11-26T03:32:17.850Z,933.29
2023-11-26T03:33:18.261Z,933.27
2023-11-26T03:34:19.263Z,933.36
2023-11-26T03:35:19.985Z,933.4
2023-11-26T03:36:20.622Z,933.39
2023-11-26T03:37:21.502Z,933.44
2023-11-26T03:38:22.410Z,933.43
2023-11-26T03:39:23.168Z,933.46
2023-11-26T03:40:23.265Z,933.52
2023-11-26T03:41:23.833Z,933.52
2023-11-26T03:42:28.643Z,933.54
2023-11-26T03:43:25.760Z,933.54
2023-11-26T03:44:26.282Z,933.59
2023-11-26T03:45:26.583Z,933.58
2023-11-26T03:46:26.764Z,933.59
2023-11-26T03:47:27.382Z,933.58
2023-11-26T03:48:28.091Z,933.56
2023-11-26T03:49:28.968Z,933.56
2023-11-26T03:50:29.665Z,933.57
2023-11-26T03:51:30.349Z,933.6
2023-11-26T03:52:31.245Z,933.59
2023-11-26T03:53:31.992Z,933.58
2023-11-26T03:54:32.887Z,933.61
2023-11-26T03:55:33.140Z,933.62
2023-11-26T03:56:33.784Z,933.59
2023-11-26T03:57:34.077Z,933.64
2023-11-26T03:58:35.007Z,933.62
2023-11-26T03:59:35.587Z,933.66
2023-11-26T04:00:35.859Z,933.65
2023-11-26T04:01:36.618Z,933.68
2023-11-26T04:02:37.287Z,933.66
2023-11-26T04:03:37.943Z,933.71
2023-11-26T04:04:38.844Z,933.68
2023-11-26T04:05:39.179Z,933.74
2023-11-26T04:06:40.016Z,933.72
2023-11-26T04:07:40.513Z,933.79
2023-11-26T04:08:41.219Z,933.74
2023-11-26T04:09:41.709Z,933.78
2023-11-26T04:10:42.449Z,933.81
2023-11-26T04:11:42.648Z,933.83
2023-11-26T04:12:43.151Z,933.84
2023-11-26T04:13:43.639Z,933.86
2023-11-26T04:14:44.376Z,933.87
2023-11-26T04:15:44.627Z,933.86
2023-11-26T04:16:45.412Z,933.88
2023-11-26T04:17:46.354Z,933.88
2023-11-26T04:18:46.557Z,933.88
2023-11-26T04:19:47.060Z,933.86
2023-11-26T04:20:47.767Z,933.85
2023-11-26T04:21:48.359Z,933.84
2023-11-26T04:22:49.094Z,933.84
2023-11-26T04:23:50.032Z,933.89
2023-11-26T04:24:50.911Z,933.88
2023-11-26T04:25:51.055Z,933.93
2023-11-26T04:26:51.388Z,933.92
2023-11-26T04:27:51.892Z,933.95
2023-11-26T04:28:52.641Z,933.95
2023-11-26T04:29:53.682Z,933.93
2023-11-26T04:30:53.949Z,933.94
2023-11-26T04:31:54.733Z,933.92
2023-11-26T04:32:55.708Z,933.91
2023-11-26T04:33:55.827Z,933.97
2023-11-26T04:34:56.608Z,933.96
2023-11-26T04:35:57.023Z,933.95
2023-11-26T04:36:57.611Z,933.96
2023-11-26T04:37:58.149Z,933.99
2023-11-26T04:38:58.324Z,934.04
2023-11-26T04:39:58.615Z,934.07
2023-11-26T04:40:59.175Z,934.09
2023-11-26T04:41:59.839Z,934.08
2023-11-26T04:43:00.730Z,934.08
2023-11-26T04:44:01.209Z,934.12
2023-11-26T04:45:01.871Z,934.12
2023-11-26T04:46:02.102Z,934.14
2023-11-26T04:47:02.599Z,934.09
2023-11-26T04:48:03.289Z,934.12
2023-11-26T04:49:04.198Z,934.12
2023-11-26T04:50:04.711Z,934.1
2023-11-26T04:51:05.587Z,934.08
2023-11-26T04:52:06.139Z,934.13
2023-11-26T04:53:06.652Z,934.13
2023-11-26T04:54:07.597Z,934.11
2023-11-26T04:55:08.592Z,934.17
2023-11-26T04:56:09.460Z,934.16
2023-11-26T04:57:10.358Z,934.16
2023-11-26T04:58:10.849Z,934.18
2023-11-26T04:59:11.003Z,934.22
2023-11-26T05:00:11.252Z,934.21
2023-11-26T05:01:11.584Z,934.18
2023-11-26T05:02:12.432Z,934.19
2023-11-26T05:03:13.333Z,934.2
2023-11-26T05:04:14.049Z,934.25
2023-11-26T05:05:14.858Z,934.23
2023-11-26T05:06:15.495Z,934.25
2023-11-26T05:07:15.593Z,934.2
2023-11-26T05:08:16.359Z,934.22
2023-11-26T05:09:16.960Z,934.19
2023-11-26T05:10:17.705Z,934.2
2023-11-26T05:11:18.227Z,934.2
2023-11-26T05:12:18.890Z,934.23
2023-11-26T05:13:19.013Z,934.24
2023-11-26T05:14:19.445Z,934.23
2023-11-26T05:15:20.597Z,934.3
2023-11-26T05:16:20.782Z,934.3
2023-11-26T05:17:21.720Z,934.3
2023-11-26T05:18:22.725Z,934.28
2023-11-26T05:19:23.352Z,934.29
2023-11-26T05:20:24.061Z,934.31
2023-11-26T05:21:24.481Z,934.33
2023-11-26T05:22:25.488Z,934.36
2023-11-26T05:23:25.838Z,934.36
2023-11-26T05:24:26.660Z,934.35
2023-11-26T05:25:27.533Z,934.4
2023-11-26T05:26:28.561Z,934.37
2023-11-26T05:27:29.060Z,934.36
2023-11-26T05:28:29.741Z,934.38
2023-11-26T05:29:30.259Z,934.41
2023-11-26T05:30:30.904Z,934.39
2023-11-26T05:31:31.290Z,934.41
2023-11-26T05:32:32.264Z,934.4
2023-11-26T05:33:32.947Z,934.39
2023-11-26T05:34:33.455Z,934.39
2023-11-26T05:35:34.021Z,934.45
2023-11-26T05:36:35.042Z,934.46
2023-11-26T05:37:35.644Z,934.48
2023-11-26T05:38:35.802Z,934.46
2023-11-26T05:39:36.733Z,934.47
2023-11-26T05:40:37.609Z,934.47
2023-11-26T05:41:38.162Z,934.47
2023-11-26T05:42:39.049Z,934.46
2023-11-26T05:43:39.967Z,934.49
2023-11-26T05:44:40.330Z,934.49
2023-11-26T05:45:41.087Z,934.44
2023-11-26T05:46:41.366Z,934.47
2023-11-26T05:47:42.487Z,934.48
2023-11-26T05:48:42.991Z,934.52
2023-11-26T05:49:43.360Z,934.57
2023-11-26T05:50:43.725Z,934.52
2023-11-26T05:51:44.664Z,934.53
2023-11-26T05:52:45.211Z,934.53
2023-11-26T05:53:45.478Z,934.56
2023-11-26T05:54:45.956Z,934.57
2023-11-26T05:55:47.026Z,934.55
2023-11-26T05:56:47.495Z,934.59
2023-11-26T05:57:47.887Z,934.55
2023-11-26T05:58:47.985Z,934.56
2023-11-26T05:59:48.292Z,934.57
2023-11-26T06:00:48.958Z,934.57
2023-11-26T06:01:48.933Z,934.57
2023-11-26T06:02:49.279Z,934.57
2023-11-26T06:03:50.176Z,934.6
2023-11-26T06:04:50.840Z,934.58
2023-11-26T06:05:51.713Z,934.59
2023-11-26T06:06:52.378Z,934.6
2023-11-26T06:07:52.979Z,934.59
2023-11-26T06:08:53.854Z,934.63
2023-11-26T06:09:54.831Z,934.63
2023-11-26T06:10:55.533Z,934.64
2023-11-26T06:11:56.211Z,934.65
2023-11-26T06:12:56.712Z,934.61
2023-11-26T06:13:57.377Z,934.66
2023-11-26T06:14:57.938Z,934.65
2023-11-26T06:15:58.316Z,934.73
2023-11-26T06:16:58.571Z,934.69
2023-11-26T06:17:59.106Z,934.74
2023-11-26T06:18:59.842Z,934.78
2023-11-26T06:20:00.829Z,934.79
2023-11-26T06:21:01.302Z,934.75
2023-11-26T06:22:02.001Z,934.8
2023-11-26T06:23:02.168Z,934.77
2023-11-26T06:24:02.860Z,934.81
2023-11-26T06:25:03.625Z,934.77
2023-11-26T06:26:04.364Z,934.79
2023-11-26T06:27:04.921Z,934.83
2023-11-26T06:28:05.452Z,934.84
2023-11-26T06:29:06.122Z,934.84
2023-11-26T06:30:06.595Z,934.82
2023-11-26T06:31:07.177Z,934.82
2023-11-26T06:32:07.653Z,934.83
2023-11-26T06:33:08.035Z,934.86
2023-11-26T06:34:08.650Z,934.86
2023-11-26T06:35:09.194Z,934.9
2023-11-26T06:36:10.105Z,934.9
2023-11-26T06:37:10.704Z,934.95
2023-11-26T06:38:11.270Z,934.94
2023-11-26T06:39:12.097Z,935.02
2023-11-26T06:40:12.985Z,935.04
2023-11-26T06:41:13.703Z,935
2023-11-26T06:42:14.630Z,935.04
2023-11-26T06:43:15.703Z,935.02
2023-11-26T06:44:16.369Z,935.1
2023-11-26T06:45:16.918Z,935.1
2023-11-26T06:46:17.901Z,935.07
2023-11-26T06:47:18.524Z,935.11
2023-11-26T06:48:19.008Z,935.07
2023-11-26T06:49:19.704Z,935.1
2023-11-26T06:50:20.170Z,935.07
2023-11-26T06:51:20.460Z,935.05
2023-11-26T06:52:21.185Z,935.06
2023-11-26T06:53:22.071Z,935.05
2023-11-26T06:54:23.008Z,935.09
2023-11-26T06:55:23.666Z,935.06
2023-11-26T06:56:23.822Z,935.09
2023-11-26T06:57:24.566Z,935.09
2023-11-26T06:58:24.733Z,935.1
2023-11-26T06:59:25.185Z,935.14
2023-11-26T07:00:25.708Z,935.14
2023-11-26T07:01:26.633Z,935.19
2023-11-26T07:02:27.213Z,935.21
2023-11-26T07:03:28.190Z,935.19
2023-11-26T07:04:28.849Z,935.25
2023-11-26T07:05:29.340Z,935.22
2023-11-26T07:06:30.383Z,935.25
2023-11-26T07:07:30.473Z,935.25
2023-11-26T07:08:30.904Z,935.27
2023-11-26T07:09:31.426Z,935.27
2023-11-26T07:10:32.374Z,935.32
2023-11-26T07:11:33.056Z,935.31
2023-11-26T07:12:33.558Z,935.27
2023-11-26T07:13:34.536Z,935.29
2023-11-26T07:14:35.279Z,935.33
2023-11-26T07:15:35.510Z,935.3
2023-11-26T07:16:36.508Z,935.36
2023-11-26T07:17:36.722Z,935.32
2023-11-26T07:18:37.440Z,935.33
2023-11-26T07:19:37.795Z,935.33
2023-11-26T07:20:38.100Z,935.3
2023-11-26T07:21:38.601Z,935.31
2023-11-26T07:22:39.182Z,935.27
2023-11-26T07:23:39.338Z,935.24
2023-11-26T07:24:39.839Z,935.31
2023-11-26T07:25:40.416Z,935.32
2023-11-26T07:26:41.350Z,935.39
2023-11-26T07:27:42.087Z,935.38
2023-11-26T07:28:42.307Z,935.32
2023-11-26T07:29:43.264Z,935.33
2023-11-26T07:30:44.183Z,935.42
2023-11-26T07:31:44.748Z,935.38
2023-11-26T07:32:45.104Z,935.49
2023-11-26T07:33:45.492Z,935.44
2023-11-26T07:34:46.399Z,935.52
2023-11-26T07:35:47.283Z,935.48
2023-11-26T07:36:47.572Z,935.5
2023-11-26T07:37:48.626Z,935.51
2023-11-26T07:38:49.179Z,935.54
2023-11-26T07:39:49.356Z,935.56
2023-11-26T07:40:50.135Z,935.6
2023-11-26T07:41:50.827Z,935.59
2023-11-26T07:42:51.197Z,935.62
2023-11-26T07:43:51.793Z,935.6
2023-11-26T07:44:52.796Z,935.64
2023-11-26T07:45:53.323Z,935.55
2023-11-26T07:46:54.199Z,935.6
2023-11-26T07:47:54.606Z,935.68
2023-11-26T07:48:55.615Z,935.62
2023-11-26T07:49:56.344Z,935.62
2023-11-26T07:50:57.121Z,935.64
2023-11-26T07:51:57.883Z,935.67
2023-11-26T07:52:58.460Z,935.6
2023-11-26T07:53:58.952Z,935.62
2023-11-26T07:54:59.506Z,935.65
2023-11-26T07:56:00.456Z,935.7
2023-11-26T07:57:00.969Z,935.66
2023-11-26T07:58:01.706Z,935.7
2023-11-26T07:59:02.688Z,935.68
2023-11-26T08:00:03.650Z,935.64
2023-11-26T08:01:04.552Z,935.68
2023-11-26T08:02:05.552Z,935.69
2023-11-26T08:03:06.053Z,935.73
2023-11-26T08:04:06.622Z,935.71
2023-11-26T08:05:07.228Z,935.73
2023-11-26T08:06:08.311Z,935.69
2023-11-26T08:07:08.612Z,935.71
2023-11-26T08:08:09.312Z,935.69
2023-11-26T08:09:10.293Z,935.74
2023-11-26T08:10:10.772Z,935.71
2023-11-26T08:11:11.448Z,935.75
2023-11-26T08:12:12.122Z,935.78
2023-11-26T08:13:12.976Z,935.76
2023-11-26T08:14:13.510Z,935.8
2023-11-26T08:15:14.223Z,935.76
2023-11-26T08:16:15.306Z,935.78
2023-11-26T08:17:15.524Z,935.72
2023-11-26T08:18:15.887Z,935.78
2023-11-26T08:19:16.469Z,935.73
2023-11-26T08:20:16.935Z,935.76
2023-11-26T08:21:17.508Z,935.8
2023-11-26T08:22:18.342Z,935.8
2023-11-26T08:23:19.047Z,935.82
2023-11-26T08:24:20.094Z,935.76
2023-11-26T08:25:20.523Z,935.82
2023-11-26T08:26:20.821Z,935.83
2023-11-26T08:27:21.151Z,935.81
2023-11-26T08:28:21.604Z,935.8
2023-11-26T08:29:21.791Z,935.86
2023-11-26T08:30:22.325Z,935.83
2023-11-26T08:31:23.276Z,935.86
2023-11-26T08:32:24.149Z,935.85
2023-11-26T08:33:24.519Z,935.85
2023-11-26T08:34:24.886Z,935.87
2023-11-26T08:35:25.794Z,935.88
2023-11-26T08:36:26.765Z,935.89
2023-11-26T08:37:28.237Z,935.96
2023-11-26T08:38:27.911Z,935.91
2023-11-26T08:39:28.639Z,935.95
2023-11-26T08:40:29.310Z,935.98
2023-11-26T08:41:29.440Z,935.97
2023-11-26T08:42:29.949Z,936
2023-11-26T08:43:30.434Z,936
2023-11-26T08:44:31.014Z,935.99
2023-11-26T08:45:31.198Z,936.03
2023-11-26T08:46:31.940Z,936.04
2023-11-26T08:47:32.702Z,936.05
2023-11-26T08:48:33.116Z,936.06
2023-11-26T08:49:33.234Z,936.1
2023-11-26T08:50:34.319Z,936.1
2023-11-26T08:51:35.040Z,936.09
2023-11-26T08:52:36.020Z,936.12
2023-11-26T08:53:36.744Z,936.11
2023-11-26T08:54:37.492Z,936.15
2023-11-26T08:55:38.266Z,936.13
2023-11-26T08:56:38.569Z,936.12
2023-11-26T08:57:39.488Z,936.15
2023-11-26T08:58:39.716Z,936.19
2023-11-26T08:59:40.119Z,936.21
2023-11-26T09:00:40.648Z,936.2
2023-11-26T09:01:41.056Z,936.19
2023-11-26T09:02:42.007Z,936.22
2023-11-26T09:03:42.302Z,936.19
2023-11-26T09:04:42.828Z,936.17
2023-11-26T09:05:43.623Z,936.18
2023-11-26T09:06:43.934Z,936.17
2023-11-26T09:07:44.558Z,936.18
2023-11-26T09:08:45.073Z,936.24
2023-11-26T09:09:45.796Z,936.25
2023-11-26T09:10:46.377Z,936.27
2023-11-26T09:11:47.074Z,936.26
2023-11-26T09:12:47.409Z,936.25
2023-11-26T09:13:48.473Z,936.29
2023-11-26T09:14:49.183Z,936.23
2023-11-26T09:15:49.505Z,936.18
2023-11-26T09:16:50.442Z,936.24
2023-11-26T09:17:51.208Z,936.24
2023-11-26T09:18:51.483Z,936.22
2023-11-26T09:19:52.552Z,936.27
2023-11-26T09:20:53.470Z,936.26
2023-11-26T09:21:54.002Z,936.27
2023-11-26T09:22:54.500Z,936.24
2023-11-26T09:23:55.193Z,936.28
2023-11-26T09:24:56.060Z,936.28
2023-11-26T09:25:56.568Z,936.22
2023-11-26T09:26:56.663Z,936.26
2023-11-26T09:27:56.936Z,936.31
2023-11-26T09:28:58.355Z,936.3
2023-11-26T09:30:59.497Z,936.28
2023-11-26T09:31:59.587Z,936.26
2023-11-26T09:32:59.897Z,936.21
2023-11-26T09:34:00.665Z,936.23
2023-11-26T09:35:01.380Z,936.2
2023-11-26T09:36:02.341Z,936.27
2023-11-26T09:37:02.528Z,936.24
2023-11-26T09:38:02.624Z,936.2
2023-11-26T09:39:02.930Z,936.22
2023-11-26T09:40:03.715Z,936.17
2023-11-26T09:41:04.601Z,936.17
2023-11-26T09:42:04.903Z,936.22
2023-11-26T09:43:05.757Z,936.16
2023-11-26T09:44:06.463Z,936.11
2023-11-26T09:45:07.172Z,936.14
2023-11-26T09:46:08.157Z,936.13
2023-11-26T09:47:08.795Z,936.11
2023-11-26T09:48:09.444Z,936.11
2023-11-26T09:49:09.825Z,936.13
2023-11-26T09:50:10.093Z,936.13
2023-11-26T09:51:10.635Z,936.14
2023-11-26T09:52:10.783Z,936.14
2023-11-26T09:53:11.340Z,936.13
2023-11-26T09:54:12.151Z,936.08
2023-11-26T09:55:12.571Z,936.09
2023-11-26T09:56:13.066Z,936.11
2023-11-26T09:57:13.412Z,936.14
2023-11-26T09:58:14.446Z,936.08
2023-11-26T09:59:14.984Z,936.12
2023-11-26T10:00:15.411Z,936.09
2023-11-26T10:01:15.599Z,936.11
2023-11-26T10:02:15.788Z,936.1
2023-11-26T10:03:16.735Z,936.05
2023-11-26T10:04:17.228Z,936.05
2023-11-26T10:05:17.912Z,936.04
2023-11-26T10:06:19.057Z,936.03
2023-11-26T10:07:20.025Z,936.02
2023-11-26T10:08:20.695Z,936.03
2023-11-26T10:09:21.397Z,936.01
2023-11-26T10:10:21.731Z,936.01
2023-11-26T10:11:22.484Z,936.03
2023-11-26T10:12:23.204Z,935.99
2023-11-26T10:13:23.640Z,936.03
2023-11-26T10:14:24.361Z,935.92
2023-11-26T10:15:25.079Z,935.97
2023-11-26T10:16:25.505Z,935.94
2023-11-26T10:17:26.363Z,935.94
2023-11-26T10:18:27.389Z,935.95
2023-11-26T10:19:27.965Z,935.94
2023-11-26T10:20:28.805Z,935.9
2023-11-26T10:21:29.836Z,935.94
2023-11-26T10:22:30.280Z,935.97
2023-11-26T10:23:30.390Z,935.97
2023-11-26T10:24:30.929Z,936.03
2023-11-26T10:25:31.266Z,936
2023-11-26T10:26:31.801Z,936
2023-11-26T10:27:31.947Z,936.02
2023-11-26T10:28:32.978Z,936.02
2023-11-26T10:29:33.673Z,936.02
2023-11-26T10:30:34.380Z,936.04
2023-11-26T10:31:35.159Z,936.03
2023-11-26T10:32:36.085Z,936
2023-11-26T10:33:36.785Z,936.03
2023-11-26T10:34:37.317Z,936.07
2023-11-26T10:35:38.006Z,936.08
2023-11-26T10:36:38.998Z,936.13
2023-11-26T10:37:39.840Z,936.03
2023-11-26T10:38:40.919Z,936.03
2023-11-26T10:39:41.868Z,936.06
2023-11-26T10:40:42.016Z,936.04
2023-11-26T10:41:42.730Z,936.07
2023-11-26T10:42:43.253Z,936.04
2023-11-26T10:43:48.584Z,936
2023-11-26T10:44:43.917Z,935.99
2023-11-26T10:45:44.642Z,935.96
2023-11-26T10:46:45.415Z,935.99
2023-11-26T10:47:45.676Z,935.98
2023-11-26T10:48:46.407Z,936.02
2023-11-26T10:49:47.103Z,935.96
2023-11-26T10:50:47.628Z,935.95
2023-11-26T10:51:47.897Z,935.95
2023-11-26T10:52:48.315Z,935.92
2023-11-26T10:53:49.053Z,935.96
2023-11-26T10:54:49.817Z,935.92
2023-11-26T10:55:50.545Z,935.86
2023-11-26T10:56:51.271Z,935.84
2023-11-26T10:57:51.658Z,935.8
2023-11-26T10:58:51.954Z,935.81
2023-11-26T10:59:52.265Z,935.84
2023-11-26T11:00:52.552Z,935.8
2023-11-26T11:01:52.712Z,935.83
2023-11-26T11:02:53.177Z,935.85
2023-11-26T11:03:53.369Z,935.87
2023-11-26T11:04:53.766Z,935.83
2023-11-26T11:05:56.306Z,935.81
2023-11-26T11:06:54.434Z,935.8
2023-11-26T11:07:55.198Z,935.84
2023-11-26T11:08:55.927Z,935.82
2023-11-26T11:09:56.432Z,935.82
2023-11-26T11:10:57.496Z,935.8
2023-11-26T11:11:57.990Z,935.79
2023-11-26T11:12:58.666Z,935.79
2023-11-26T11:13:59.396Z,935.74
2023-11-26T11:15:00.118Z,935.74
2023-11-26T11:16:00.384Z,935.75
2023-11-26T11:17:01.365Z,935.71
2023-11-26T11:18:02.274Z,935.67
2023-11-26T11:19:03.034Z,935.66
2023-11-26T11:20:03.249Z,935.66
2023-11-26T11:21:04.044Z,935.63
2023-11-26T11:22:04.782Z,935.64
2023-11-26T11:23:05.664Z,935.62
2023-11-26T11:24:07.566Z,935.63
2023-11-26T11:25:06.592Z,935.62
2023-11-26T11:26:07.672Z,935.57
2023-11-26T11:27:08.655Z,935.6
2023-11-26T11:28:09.429Z,935.62
2023-11-26T11:29:10.111Z,935.66
2023-11-26T11:30:11.005Z,935.67
2023-11-26T11:31:11.208Z,935.68
2023-11-26T11:32:11.538Z,935.7
2023-11-26T11:33:12.300Z,935.7
2023-11-26T11:34:13.145Z,935.73
2023-11-26T11:35:13.339Z,935.71
2023-11-26T11:36:14.239Z,935.71
2023-11-26T11:37:14.850Z,935.71
2023-11-26T11:38:15.755Z,935.66
2023-11-26T11:39:16.666Z,935.66
2023-11-26T11:40:17.441Z,935.65
2023-11-26T11:41:17.682Z,935.64
2023-11-26T11:42:18.349Z,935.6
2023-11-26T11:43:18.649Z,935.58
2023-11-26T11:44:19.021Z,935.62
2023-11-26T11:45:19.915Z,935.6
2023-11-26T11:46:20.807Z,935.6
2023-11-26T11:47:21.309Z,935.61
2023-11-26T11:48:21.853Z,935.62
2023-11-26T11:49:22.384Z,935.61
2023-11-26T11:50:22.573Z,935.62
2023-11-26T11:51:22.802Z,935.66
2023-11-26T11:52:23.221Z,935.69
2023-11-26T11:53:26.424Z,935.68
2023-11-26T11:54:24.865Z,935.7
2023-11-26T11:55:25.844Z,935.71
2023-11-26T11:56:26.386Z,935.75
2023-11-26T11:57:27.131Z,935.74
2023-11-26T11:58:27.323Z,935.76
2023-11-26T11:59:28.221Z,935.71
2023-11-26T12:00:28.960Z,935.72
2023-11-26T12:01:29.860Z,935.67
2023-11-26T12:02:30.683Z,935.71
2023-11-26T12:03:31.059Z,935.73
2023-11-26T12:04:31.471Z,935.7
2023-11-26T12:05:31.617Z,935.77
2023-11-26T12:06:32.546Z,935.71
2023-11-26T12:07:33.247Z,935.7
2023-11-26T12:08:33.746Z,935.71
2023-11-26T12:09:34.232Z,935.73
2023-11-26T12:10:35.062Z,935.73
2023-11-26T12:11:36.107Z,935.73
2023-11-26T12:12:36.663Z,935.76
2023-11-26T12:13:37.650Z,935.74
2023-11-26T12:14:38.352Z,935.71
2023-11-26T12:15:38.645Z,935.76
2023-11-26T12:16:39.693Z,935.77
2023-11-26T12:17:41.745Z,935.74
2023-11-26T12:18:40.915Z,935.74
2023-11-26T12:19:41.537Z,935.71
2023-11-26T12:20:41.721Z,935.72
2023-11-26T12:21:41.979Z,935.67
2023-11-26T12:22:42.661Z,935.68
2023-11-26T12:23:43.391Z,935.7
2023-11-26T12:24:44.387Z,935.71
2023-11-26T12:25:45.134Z,935.7
2023-11-26T12:26:45.827Z,935.7
2023-11-26T12:27:46.545Z,935.71
2023-11-26T12:28:46.786Z,935.7
2023-11-26T12:29:47.095Z,935.73
2023-11-26T12:30:47.850Z,935.7
2023-11-26T12:31:48.458Z,935.71
2023-11-26T12:32:49.088Z,935.71
2023-11-26T12:33:49.805Z,935.71
2023-11-26T12:34:50.599Z,935.75
2023-11-26T12:35:50.776Z,935.74
2023-11-26T12:36:51.497Z,935.76
2023-11-26T12:37:51.994Z,935.76
2023-11-26T12:38:52.929Z,935.74
2023-11-26T12:39:53.645Z,935.75
2023-11-26T12:40:54.427Z,935.75